createdAt,value
2019-04-25T00:00:51.409Z,-1.48
2019-04-25T00:03:38.327Z,-1.51
2019-04-25T00:06:26.252Z,-1.55
2019-04-25T00:08:53.486Z,-1.59
2019-04-25T00:19:57.968Z,-1.63
2019-04-25T00:22:44.850Z,-1.61
2019-04-25T00:25:31.437Z,-1.68
2019-04-25T00:30:52.314Z,-1.75
2019-04-25T00:33:21.522Z,-1.78
2019-04-25T00:35:48.158Z,-1.77
2019-04-25T00:38:14.427Z,-1.76
2019-04-25T00:40:42.731Z,-1.82
2019-04-25T00:43:08.963Z,-1.84
2019-04-25T00:45:35.212Z,-1.84
2019-04-25T00:48:02.425Z,-1.83
2019-04-25T00:50:29.625Z,-1.84
2019-04-25T00:52:55.872Z,-1.85
2019-04-25T00:55:28.626Z,-1.89
2019-04-25T01:00:48.995Z,-1.96
2019-04-25T01:03:35.300Z,-1.98
2019-04-25T01:06:03.380Z,-2.01
2019-04-25T01:08:29.710Z,-2.01
2019-04-25T01:10:56.036Z,-1.98
2019-04-25T01:13:22.397Z,-1.96
2019-04-25T01:18:55.971Z,-1.94
2019-04-25T01:21:22.208Z,-1.95
2019-04-25T01:23:49.356Z,-1.94
2019-04-25T01:26:16.725Z,-1.99
2019-04-25T01:28:43.938Z,-2.02
2019-04-25T01:33:58.822Z,-1.97
2019-04-25T01:36:44.851Z,-1.97
2019-04-25T01:39:26.259Z,-1.98
2019-04-25T01:47:04.193Z,-2.00
2019-04-25T01:49:31.843Z,-2.03
2019-04-25T01:51:58.622Z,-2.07
2019-04-25T01:56:55.921Z,-2.15
2019-04-25T01:59:23.721Z,-2.32
2019-04-25T02:01:50.950Z,-2.23
2019-04-25T02:04:18.208Z,-2.22
2019-04-25T02:06:44.593Z,-2.24
2019-04-25T02:12:05.076Z,-2.19
2019-04-25T02:14:31.354Z,-2.16
2019-04-25T02:16:58.461Z,-2.24
2019-04-25T02:19:25.923Z,-2.28
2019-04-25T02:21:54.412Z,-2.29
2019-04-25T02:24:20.920Z,-2.30
2019-04-25T02:26:47.164Z,-2.29
2019-04-25T02:29:13.730Z,-2.34
2019-04-25T02:31:41.617Z,-2.44
2019-04-25T02:34:08.780Z,-2.47
2019-04-25T02:36:35.231Z,-2.45
2019-04-25T02:39:04.617Z,-2.47
2019-04-25T02:41:29.711Z,-2.51
2019-04-25T02:43:59.915Z,-2.48
2019-04-25T02:46:44.862Z,-2.41
2019-04-25T02:49:38.664Z,-2.49
2019-04-25T02:52:19.042Z,-2.57
2019-04-25T02:54:45.274Z,-2.47
2019-04-25T02:57:11.555Z,-2.46
2019-04-25T02:59:37.808Z,-2.52
2019-04-25T03:05:01.332Z,-2.56
2019-04-25T03:07:28.880Z,-2.53
2019-04-25T03:09:55.283Z,-2.34
2019-04-25T03:12:30.727Z,-2.27
2019-04-25T03:14:49.737Z,-2.23
2019-04-25T03:17:37.534Z,-2.18
2019-04-25T03:28:48.324Z,-2.07
2019-04-25T03:31:22.066Z,-2.00
2019-04-25T03:33:45.055Z,-1.93
2019-04-25T03:36:10.921Z,-1.88
2019-04-25T03:38:37.279Z,-1.82
2019-04-25T03:41:04.822Z,-1.76
2019-04-25T03:43:33.243Z,-1.71
2019-04-25T03:45:59.892Z,-1.64
2019-04-25T03:48:26.638Z,-1.60
2019-04-25T03:50:54.026Z,-1.53
2019-04-25T03:53:21.153Z,-1.47
2019-04-25T03:55:47.405Z,-1.40
2019-04-25T03:58:14.611Z,-1.34
2019-04-25T04:03:38.639Z,-1.19
2019-04-25T04:06:07.312Z,-1.13
2019-04-25T04:08:34.292Z,-1.06
2019-04-25T04:11:01.263Z,-0.98
2019-04-25T04:13:27.523Z,-0.89
2019-04-25T04:24:14.111Z,-0.49
2019-04-25T04:26:41.005Z,-0.38
2019-04-25T04:29:07.796Z,-0.27
2019-04-25T04:31:34.253Z,-0.16
2019-04-25T04:34:00.495Z,-0.06
2019-04-25T04:36:26.791Z,0.04
2019-04-25T04:38:54.303Z,0.17
2019-04-25T04:41:21.230Z,0.32
2019-04-25T04:43:47.488Z,0.47
2019-04-25T04:46:16.731Z,0.68
2019-04-25T04:48:43.746Z,0.93
2019-04-25T04:51:10.545Z,1.22
2019-04-25T04:53:38.305Z,1.55
2019-04-25T04:56:04.559Z,1.96
2019-04-25T04:58:30.802Z,2.35
2019-04-25T05:00:57.057Z,2.76
2019-04-25T05:03:44.101Z,3.17
2019-04-25T05:11:18.265Z,4.24
2019-04-25T05:13:44.496Z,4.68
2019-04-25T05:16:11.189Z,5.03
2019-04-25T05:18:40.046Z,5.38
2019-04-25T05:21:07.046Z,5.82
2019-04-25T05:23:34.386Z,6.26
2019-04-25T05:26:01.451Z,6.57
2019-04-25T05:28:27.736Z,6.92
2019-04-25T05:33:27.879Z,7.61
2019-04-25T05:35:54.156Z,8.01
2019-04-25T05:38:20.427Z,8.25
2019-04-25T05:46:09.959Z,9.00
2019-04-25T05:48:36.223Z,9.21
2019-04-25T05:51:23.962Z,9.51
2019-04-25T05:53:50.430Z,9.81
2019-04-25T05:56:16.693Z,10.15
2019-04-25T05:58:43.914Z,10.52
2019-04-25T06:01:11.167Z,10.93
2019-04-25T06:03:37.469Z,11.27
2019-04-25T06:06:03.702Z,11.47
2019-04-25T06:19:29.203Z,12.76
2019-04-25T06:33:13.337Z,13.58
2019-04-25T06:35:40.691Z,13.69
2019-04-25T06:38:26.877Z,13.63
2019-04-25T06:40:53.628Z,13.85
2019-04-25T06:46:14.035Z,14.81
2019-04-25T06:51:48.868Z,15.45
2019-04-25T06:54:15.556Z,15.84
2019-04-25T06:56:43.421Z,16.24
2019-04-25T06:59:10.364Z,16.56
2019-04-25T07:01:36.625Z,16.87
2019-04-25T07:04:04.058Z,17.26
2019-04-25T07:12:05.688Z,17.59
2019-04-25T07:14:33.839Z,17.59
2019-04-25T07:17:00.518Z,18.11
2019-04-25T07:19:28.295Z,18.21
2019-04-25T07:21:55.920Z,18.41
2019-04-25T07:24:22.179Z,18.68
2019-04-25T07:27:08.532Z,18.99
2019-04-25T07:35:18.708Z,19.81
2019-04-25T07:37:44.960Z,20.06
2019-04-25T07:43:05.095Z,20.55
2019-04-25T07:45:31.353Z,20.83
2019-04-25T07:47:57.677Z,20.91
2019-04-25T07:50:23.963Z,20.73
2019-04-25T07:52:50.204Z,20.83
2019-04-25T07:55:16.571Z,21.04
2019-04-25T07:57:44.276Z,20.99
2019-04-25T08:00:53.913Z,21.44
2019-04-25T08:03:20.298Z,21.87
2019-04-25T08:05:46.582Z,21.80
2019-04-25T08:08:13.556Z,21.96
2019-04-25T08:11:23.658Z,22.33
2019-04-25T08:14:10.251Z,22.64
2019-04-25T08:16:56.369Z,22.87
2019-04-25T08:22:23.621Z,23.29
2019-04-25T08:24:50.121Z,23.36
2019-04-25T08:27:16.361Z,23.53
2019-04-25T08:29:44.855Z,23.65
2019-04-25T08:34:40.819Z,23.72
2019-04-25T08:37:17.537Z,23.88
2019-04-25T08:39:38.088Z,23.73
2019-04-25T08:42:03.536Z,23.62
2019-04-25T08:44:29.821Z,23.59
2019-04-25T08:46:56.099Z,23.85
2019-04-25T08:52:09.977Z,24.18
2019-04-25T09:01:03.895Z,24.46
2019-04-25T09:03:50.085Z,23.92
2019-04-25T09:06:16.559Z,24.18
2019-04-25T09:08:45.367Z,24.13
2019-04-25T09:11:32.383Z,24.24
2019-04-25T09:16:45.163Z,24.26
2019-04-25T09:19:14.255Z,24.56
2019-04-25T09:21:45.387Z,24.56
2019-04-25T09:24:09.354Z,24.55
2019-04-25T09:26:36.921Z,24.72
2019-04-25T09:29:15.978Z,24.94
2019-04-25T09:31:34.333Z,24.56
2019-04-25T09:34:00.251Z,24.58
2019-04-25T09:36:26.613Z,24.59
2019-04-25T09:41:26.994Z,25.06
2019-04-25T09:46:47.769Z,24.97
2019-04-25T09:49:15.905Z,24.64
2019-04-25T09:52:03.367Z,24.86
2019-04-25T09:57:24.026Z,24.94
2019-04-25T09:59:50.388Z,24.93
2019-04-25T10:02:16.696Z,25.09
2019-04-25T10:04:45.131Z,25.18
2019-04-25T10:07:11.110Z,25.28
2019-04-25T10:09:37.502Z,25.02
2019-04-25T10:12:03.866Z,25.11
2019-04-25T10:15:09.614Z,25.14
2019-04-25T10:17:37.589Z,25.10
2019-04-25T10:20:46.313Z,24.99
2019-04-25T10:23:13.607Z,25.00
2019-04-25T10:31:05.960Z,25.17
2019-04-25T10:33:32.249Z,24.98
2019-04-25T10:36:00.960Z,24.99
2019-04-25T10:39:11.021Z,25.12
2019-04-25T10:41:36.241Z,25.24
2019-04-25T10:44:45.717Z,24.84
2019-04-25T10:47:25.834Z,24.76
2019-04-25T10:49:55.219Z,24.84
2019-04-25T10:52:20.525Z,24.89
2019-04-25T10:54:47.886Z,24.70
2019-04-25T10:57:14.957Z,24.52
2019-04-25T10:59:54.580Z,24.49
2019-04-25T11:07:17.780Z,24.68
2019-04-25T11:09:45.580Z,24.61
2019-04-25T11:12:25.522Z,24.47
2019-04-25T11:14:53.299Z,24.63
2019-04-25T11:17:20.090Z,24.66
2019-04-25T11:19:46.823Z,24.60
2019-04-25T11:24:44.597Z,24.64
2019-04-25T11:27:10.981Z,24.57
2019-04-25T11:29:37.382Z,24.61
2019-04-25T11:34:51.538Z,24.36
2019-04-25T11:42:47.090Z,24.49
2019-04-25T11:45:36.323Z,24.16
2019-04-25T11:53:55.580Z,23.93
2019-04-25T11:56:24.180Z,23.92
2019-04-25T12:04:05.433Z,23.74
2019-04-25T12:06:33.456Z,23.62
2019-04-25T12:08:59.837Z,23.39
2019-04-25T12:14:11.947Z,23.54
2019-04-25T12:16:38.435Z,23.25
2019-04-25T12:19:04.853Z,22.84
2019-04-25T12:21:31.278Z,23.07
2019-04-25T12:23:58.050Z,23.07
2019-04-25T12:26:26.243Z,23.13
2019-04-25T12:28:54.733Z,23.13
2019-04-25T12:31:20.799Z,23.07
2019-04-25T12:33:48.665Z,23.07
2019-04-25T12:39:35.971Z,23.01
2019-04-25T12:42:02.214Z,23.07
2019-04-25T12:47:44.113Z,22.79
2019-04-25T12:52:58.151Z,22.61
2019-04-25T12:55:44.363Z,22.78
2019-04-25T12:58:13.557Z,22.69
2019-04-25T13:00:47.929Z,22.54
2019-04-25T13:03:09.822Z,22.57
2019-04-25T13:05:36.418Z,22.62
2019-04-25T13:13:44.420Z,21.89
2019-04-25T13:16:10.676Z,21.74
2019-04-25T13:19:09.180Z,21.81
2019-04-25T13:21:24.903Z,21.76
2019-04-25T13:23:51.148Z,21.71
2019-04-25T13:26:19.192Z,21.61
2019-04-25T13:29:05.293Z,21.65
2019-04-25T13:31:51.349Z,21.61
2019-04-25T13:36:58.159Z,21.31
2019-04-25T13:47:49.488Z,21.21
2019-04-25T13:50:15.764Z,21.30
2019-04-25T13:52:43.243Z,20.84
2019-04-25T13:55:10.413Z,20.87
2019-04-25T13:57:37.105Z,20.83
2019-04-25T14:02:59.498Z,20.83
2019-04-25T14:08:14.943Z,20.71
2019-04-25T14:27:26.744Z,20.31
2019-04-25T14:29:53.583Z,20.24
2019-04-25T14:32:35.188Z,20.17
2019-04-25T14:35:24.147Z,20.08
2019-04-25T14:40:50.678Z,19.53
2019-04-25T14:43:17.190Z,19.25
2019-04-25T14:45:45.671Z,19.14
2019-04-25T14:48:11.919Z,19.08
2019-04-25T14:50:38.190Z,18.84
2019-04-25T14:53:04.485Z,18.76
2019-04-25T14:55:50.481Z,18.71
2019-04-25T15:03:26.038Z,18.42
2019-04-25T15:05:55.293Z,18.24
2019-04-25T15:08:21.767Z,18.19
2019-04-25T15:10:48.525Z,18.05
2019-04-25T15:13:15.225Z,17.96
2019-04-25T15:15:42.029Z,17.90
2019-04-25T15:18:08.367Z,17.84
2019-04-25T15:20:36.714Z,17.78
2019-04-25T15:26:31.169Z,17.50
2019-04-25T15:28:57.506Z,17.40
2019-04-25T15:31:55.227Z,17.31
2019-04-25T15:42:39.972Z,17.14
2019-04-25T15:48:34.403Z,16.98
2019-04-25T15:51:00.697Z,16.88
2019-04-25T15:53:27.204Z,16.77
2019-04-25T15:56:15.092Z,16.69
2019-04-25T15:58:41.667Z,16.58
2019-04-25T16:04:08.166Z,16.42
2019-04-25T16:06:34.499Z,16.39
2019-04-25T16:14:57.339Z,16.03
2019-04-25T16:19:58.037Z,15.97
2019-04-25T16:22:24.612Z,15.90
2019-04-25T16:27:39.010Z,15.68
2019-04-25T16:32:37.086Z,15.60
2019-04-25T16:35:23.090Z,15.47
2019-04-25T16:37:49.348Z,15.33
2019-04-25T16:40:15.607Z,15.11
2019-04-25T16:42:41.898Z,15.11
2019-04-25T16:45:28.940Z,15.01
2019-04-25T16:47:56.274Z,14.82
2019-04-25T16:53:10.155Z,14.57
2019-04-25T16:55:36.697Z,14.48
2019-04-25T16:58:05.391Z,14.36
2019-04-25T17:05:58.269Z,14.03
2019-04-25T17:08:44.275Z,13.96
2019-04-25T17:17:06.945Z,13.60
2019-04-25T17:19:52.973Z,13.48
2019-04-25T17:24:53.574Z,13.17
2019-04-25T17:30:48.747Z,12.84
2019-04-25T17:38:45.626Z,12.37
2019-04-25T17:43:51.996Z,12.06
2019-04-25T17:48:52.309Z,11.80
2019-04-25T17:51:18.668Z,11.69
2019-04-25T17:53:44.926Z,11.59
2019-04-25T17:56:11.293Z,11.49
2019-04-25T17:58:37.540Z,11.37
2019-04-25T18:01:03.833Z,11.22
2019-04-25T18:03:30.082Z,11.09
2019-04-25T18:06:16.261Z,10.95
2019-04-25T18:11:38.099Z,10.76
2019-04-25T18:19:36.753Z,10.27
2019-04-25T18:25:15.496Z,9.89
2019-04-25T18:28:01.870Z,9.70
2019-04-25T18:30:28.553Z,9.48
2019-04-25T18:33:14.568Z,9.26
2019-04-25T18:36:02.414Z,9.11
2019-04-25T18:47:17.480Z,8.34
2019-04-25T18:52:51.106Z,7.98
2019-04-25T18:55:37.597Z,7.73
2019-04-25T18:58:23.652Z,7.46
2019-04-25T19:01:09.679Z,7.28
2019-04-25T19:03:55.723Z,7.15
2019-04-25T19:08:56.397Z,6.77
2019-04-25T19:11:22.660Z,6.59
2019-04-25T19:13:49.249Z,6.42
2019-04-25T19:16:15.522Z,6.01
2019-04-25T19:18:44.439Z,6.01
2019-04-25T19:21:09.930Z,5.91
2019-04-25T19:26:10.175Z,5.62
2019-04-25T19:28:36.640Z,5.43
2019-04-25T19:33:53.646Z,5.06
2019-04-25T19:36:19.901Z,4.90
2019-04-25T19:38:46.159Z,4.77
2019-04-25T19:41:32.290Z,4.61
2019-04-25T19:46:52.405Z,4.38
2019-04-25T19:49:18.657Z,4.26
2019-04-25T19:51:45.204Z,4.16
2019-04-25T19:54:36.044Z,4.03
2019-04-25T19:57:02.352Z,3.98
2019-04-25T19:59:28.603Z,3.81
2019-04-25T20:10:57.799Z,3.42
2019-04-25T20:13:24.117Z,3.38
2019-04-25T20:16:10.176Z,3.27
2019-04-25T20:18:36.663Z,3.10
2019-04-25T20:21:03.393Z,2.93
2019-04-25T20:23:29.971Z,2.82
2019-04-25T20:26:38.582Z,2.79
2019-04-25T20:29:04.856Z,2.80
2019-04-25T20:31:52.815Z,2.75
2019-04-25T20:34:19.115Z,2.69
2019-04-25T20:36:45.749Z,2.66
2019-04-25T20:39:13.545Z,2.59
2019-04-25T20:41:39.852Z,2.43
2019-04-25T20:44:06.315Z,2.26
2019-04-25T20:46:32.581Z,2.18
2019-04-25T20:49:18.571Z,2.10
2019-04-25T20:51:44.812Z,1.93
2019-04-25T20:54:11.063Z,1.81
2019-04-25T20:56:37.375Z,1.80
2019-04-25T20:59:03.642Z,1.78
2019-04-25T21:01:30.155Z,1.74
2019-04-25T21:03:56.409Z,1.67
2019-04-25T21:08:57.598Z,1.45
2019-04-25T21:11:24.984Z,1.37
2019-04-25T21:14:11.011Z,1.28
2019-04-25T21:16:57.041Z,1.25
2019-04-25T21:19:43.060Z,1.22
2019-04-25T21:22:09.323Z,1.20
2019-04-25T21:24:35.568Z,1.13
2019-04-25T21:27:01.839Z,1.08
2019-04-25T21:29:28.201Z,1.09
2019-04-25T21:31:54.689Z,1.11
2019-04-25T21:34:26.522Z,1.13
2019-04-25T21:36:49.102Z,1.09
2019-04-25T21:39:35.351Z,1.02
2019-04-25T21:42:21.402Z,0.96
2019-04-25T21:44:47.960Z,0.90
2019-04-25T21:47:14.213Z,0.82
2019-04-25T21:49:42.361Z,0.75
2019-04-25T21:52:08.604Z,0.72
2019-04-25T21:54:35.057Z,0.70
2019-04-25T21:57:01.842Z,0.67
2019-04-25T21:59:29.789Z,0.63
2019-04-25T22:02:37.352Z,0.60
2019-04-25T22:13:16.771Z,0.32
2019-04-25T22:15:41.939Z,0.29
2019-04-25T22:18:08.212Z,0.29
2019-04-25T22:20:36.194Z,0.25
2019-04-25T22:23:02.543Z,0.24
2019-04-25T22:25:30.721Z,0.24
2019-04-25T22:27:58.671Z,0.16
2019-04-25T22:30:26.029Z,0.12
2019-04-25T22:36:00.133Z,0.12
2019-04-25T22:38:26.771Z,0.09
2019-04-25T22:40:53.067Z,0.05
2019-04-25T22:43:19.550Z,-0.01
2019-04-25T22:45:46.135Z,-0.02
2019-04-25T22:48:12.436Z,-0.01
2019-04-25T22:50:38.923Z,0.06
2019-04-25T22:53:05.284Z,0.14
2019-04-25T22:55:33.394Z,0.20
2019-04-25T22:57:59.679Z,0.17
2019-04-25T23:08:25.271Z,-0.22
2019-04-25T23:10:51.557Z,-0.22
2019-04-25T23:13:17.854Z,-0.25
2019-04-25T23:15:44.120Z,-0.26
2019-04-25T23:18:11.382Z,-0.27
2019-04-25T23:20:38.959Z,-0.25
2019-04-25T23:23:05.884Z,-0.24
2019-04-25T23:25:51.935Z,-0.28
2019-04-25T23:31:12.585Z,-0.31
2019-04-25T23:33:50.809Z,-0.33
2019-04-25T23:36:17.482Z,-0.38
2019-04-25T23:38:43.760Z,-0.44
2019-04-25T23:41:10.230Z,-0.49
2019-04-25T23:43:36.598Z,-0.52
2019-04-25T23:46:02.892Z,-0.55
2019-04-25T23:48:29.468Z,-0.60
2019-04-25T23:50:55.755Z,-0.62
2019-04-25T23:53:22.024Z,-0.63
2019-04-25T23:55:48.314Z,-0.68
2019-04-25T23:58:14.678Z,-0.71
